»·PEaware :: N11614 KBFL-KVIS

N11614 :: KBFL-KVIS

FLIGHT INFORMATION

Flight Status: Arrived
Operator: Privately registered:
United States
More flights under this callsign
Pilot: Utku A. (15598)
Aircraft: CESSNA 172 SKYHAWK
(C172)
More flights by this aircraft type
Origin: KBFL Meadows
United States
Destination: KVIS Visalia Mun
United States
More flights between these airports :: More routes between these airports
Route: +MEADO3 EHF V165 TTE BRETT
File this flight plan on PilotEdge
Remarks:
Altitude:
(Current/Filed)
4,000ft
Speed:
(Current/Filed)
110kts
Departed: 01-Nov-18 08:57 PM
Arrived: 01-Nov-18 09:30 PM
Distance/Time
Traveled:
56nm/0:33
Distance/Time
To Go:
Arrived

Flight Plot

Page will automatically refresh every two minutes.

Flight plan parsing failed; only flown route is shown


Map Options




Map Legend


Flown Route
Filed Route
Departure Airport
Arrival Airport
Navaid (VOR, NDB)
Fix

Horizontal Profiles

Position Reports

Time Latitude Longitude Heading Altitude Ground
Speed
01-Nov-18 20:35 35.429251 -119.045940 221 497ft 0kts
01-Nov-18 20:36 35.429251 -119.045940 221 497ft 0kts
01-Nov-18 20:37 35.429251 -119.045940 221 497ft 0kts
01-Nov-18 20:38 35.429251 -119.045940 221 497ft 0kts
01-Nov-18 20:39 35.429251 -119.045940 221 497ft 0kts
01-Nov-18 20:40 35.429251 -119.045940 221 497ft 0kts
01-Nov-18 20:41 35.429251 -119.045940 221 497ft 0kts
01-Nov-18 20:42 35.429251 -119.045940 221 497ft 0kts
01-Nov-18 20:43 35.429251 -119.045940 221 497ft 0kts
01-Nov-18 20:44 35.429251 -119.045940 221 497ft 0kts
01-Nov-18 20:45 35.429251 -119.045940 221 497ft 0kts
01-Nov-18 20:46 35.429251 -119.045940 221 497ft 0kts
01-Nov-18 20:47 35.429251 -119.045940 221 497ft 0kts
01-Nov-18 20:48 35.429251 -119.045940 221 497ft 0kts
01-Nov-18 20:49 35.429251 -119.045940 221 497ft 0kts
01-Nov-18 20:50 35.429251 -119.045940 221 497ft 0kts
01-Nov-18 20:51 35.429251 -119.045940 221 497ft 0kts
01-Nov-18 20:52 35.429251 -119.045940 221 497ft 0kts
01-Nov-18 20:53 35.429068 -119.046070 205 497ft 0kts
01-Nov-18 20:54 35.427326 -119.046096 135 497ft 14kts
01-Nov-18 20:55 35.425604 -119.044203 242 497ft 3kts
01-Nov-18 20:56 35.425540 -119.044681 262 497ft 0kts
01-Nov-18 20:57 35.425540 -119.044681 262 497ft 0kts
01-Nov-18 20:58 35.425498 -119.045156 262 497ft 10kts
01-Nov-18 20:59 35.435159 -119.058527 314 1041ft 77kts
01-Nov-18 21:00 35.449481 -119.077906 314 2091ft 80kts
01-Nov-18 21:01 35.468345 -119.092057 348 3130ft 79kts
01-Nov-18 21:02 35.490083 -119.095370 8 4030ft 85kts
01-Nov-18 21:03 35.519537 -119.090926 8 4039ft 115kts
01-Nov-18 21:04 35.551495 -119.085494 9 4038ft 114kts
01-Nov-18 21:05 35.582274 -119.080058 8 4038ft 110kts
01-Nov-18 21:06 35.612667 -119.074661 8 4038ft 110kts
01-Nov-18 21:08 35.643049 -119.069252 8 4038ft 111kts
01-Nov-18 21:09 35.673615 -119.063802 7 4038ft 111kts
01-Nov-18 21:10 35.704309 -119.058332 8 4038ft 111kts
01-Nov-18 21:11 35.734902 -119.052875 9 4038ft 111kts
01-Nov-18 21:12 35.765387 -119.047430 9 4038ft 111kts
01-Nov-18 21:13 35.796063 -119.041946 10 4038ft 112kts
01-Nov-18 21:14 35.827174 -119.036375 11 4038ft 112kts
01-Nov-18 21:15 35.858229 -119.030802 11 4039ft 113kts
01-Nov-18 21:16 35.889368 -119.025216 11 4039ft 113kts
01-Nov-18 21:17 35.920394 -119.026147 338 4039ft 117kts
01-Nov-18 21:18 35.950063 -119.042732 337 4039ft 117kts
01-Nov-18 21:19 35.979351 -119.059800 337 4030ft 117kts
01-Nov-18 21:20 36.008819 -119.077105 337 4030ft 117kts
01-Nov-18 21:21 36.038274 -119.094424 336 4029ft 117kts
01-Nov-18 21:22 36.067880 -119.111842 336 3959ft 123kts
01-Nov-18 21:23 36.100127 -119.130800 336 3466ft 131kts
01-Nov-18 21:24 36.128078 -119.156655 315 3018ft 129kts
01-Nov-18 21:25 36.151780 -119.185950 314 3003ft 116kts
01-Nov-18 21:26 36.174549 -119.214129 314 3002ft 115kts
01-Nov-18 21:27 36.197272 -119.242109 314 3001ft 115kts
01-Nov-18 21:28 36.219744 -119.269840 314 2975ft 109kts
01-Nov-18 21:29 36.241599 -119.297201 315 2551ft 112kts
01-Nov-18 21:30 36.262823 -119.323615 315 1816ft 111kts
01-Nov-18 21:31 36.283903 -119.349708 316 1121ft 101kts
01-Nov-18 21:32 36.303134 -119.373510 316 581ft 97kts
01-Nov-18 21:33 36.319146 -119.393572 312 292ft 31kts
01-Nov-18 21:34 36.321998 -119.395187 5 292ft 9kts
01-Nov-18 21:35 36.322199 -119.394029 316 293ft 0kts
01-Nov-18 21:36 36.322199 -119.394029 316 293ft 0kts
01-Nov-18 21:37 36.322199 -119.394029 316 293ft 0kts
01-Nov-18 21:38 36.322199 -119.394029 316 293ft 0kts
01-Nov-18 21:39 36.322199 -119.394029 316 293ft 0kts
01-Nov-18 21:40 36.322199 -119.394029 316 293ft 0kts
01-Nov-18 21:41 36.322199 -119.394029 316 293ft 0kts
01-Nov-18 21:42 36.322199 -119.394029 316 293ft 0kts
01-Nov-18 21:43 36.322199 -119.394029 316 293ft 0kts

Navigation Log

Ident Type
Flight plan parsing failed, navigation log unavailable